Swinomish — WC5223 — position and weather

sailwx.info

Track history (hours):
 
Tides and Currents Weather Stations Pressure Air Temp Water Temp Dewpoint Dewpoint Depression Visibility Wind Speed Wind Dir Waves Ship Positions

Swinomish

Owner: DUNLAP TOWING CO, LA CONNER, WA. More information available from US FCC via Universal Licensing System and Coast Guard Vessel Documentation Center.

Last reported at 2017-Sep-22 01:08 UTC. Time now 2017-Sep-23 18:32 UTC.
Position N 48°24' W 122°30'.

Length 15 m; draft 3.5 m.

Type: Tug. MMSI: 366972050.

Date/timePositionNaut miles runAvg speedWind from/ knotsBaromVisibWave heightAir tempDewpointWater temp
2017-Sep-22 01:08N 48°24' W 122°30'0 0.0
2017-Sep-22 01:00N 48°24' W 122°30'0 0.0
2017-Sep-22 00:30N 48°24' W 122°30'0 0.0
2017-Sep-22 00:00N 48°24' W 122°30'0 0.0
2017-Sep-21 23:31N 48°24' W 122°30'0 0.0
2017-Sep-21 16:17N 48°24' W 122°30'0 0.0
2017-Sep-21 15:06N 48°24' W 122°30'0 0.0
2017-Sep-21 15:00N 48°24' W 122°30'0 0.0
2017-Sep-21 14:31N 48°24' W 122°30'0 0.0
2017-Sep-21 14:00N 48°24' W 122°30'0 0.0
2017-Sep-21 13:30N 48°24' W 122°30'0 0.0
2017-Sep-21 13:01N 48°24' W 122°30'0 0.0
2017-Sep-21 12:30N 48°24' W 122°30'0 0.0
2017-Sep-21 12:00N 48°24' W 122°30'0 0.0
2017-Sep-21 11:30N 48°24' W 122°30'0 0.0
2017-Sep-21 11:00N 48°24' W 122°30'0 0.0
2017-Sep-21 10:30N 48°24' W 122°30'0 0.0
2017-Sep-21 10:00N 48°24' W 122°30'0 0.1
2017-Sep-21 09:31N 48°24' W 122°30'0 0.1
2017-Sep-21 09:01N 48°24' W 122°30'0 0.0
2017-Sep-21 08:30N 48°24' W 122°30'0 0.0
2017-Sep-21 08:00N 48°24' W 122°30'0 0.0
2017-Sep-21 07:30N 48°24' W 122°30'0 0.0
2017-Sep-21 07:00N 48°24' W 122°30'0 0.0
2017-Sep-21 06:30N 48°24' W 122°30'0 0.0
2017-Sep-21 06:00N 48°24' W 122°30'0 0.0
2017-Sep-21 05:30N 48°24' W 122°30'0 0.0
2017-Sep-21 05:00N 48°24' W 122°30'0 0.0
2017-Sep-21 04:30N 48°24' W 122°30'0 0.0
2017-Sep-21 03:59N 48°24' W 122°30'0 0.0
2017-Sep-21 03:30N 48°24' W 122°30'0 0.0
2017-Sep-21 02:45N 48°24' W 122°30'0 0.0
2017-Sep-21 02:28N 48°24' W 122°30'0 0.0
2017-Sep-21 00:01N 48°24' W 122°30'0 0.0
2017-Sep-20 23:55N 48°24' W 122°30'0 0.0
2017-Sep-20 16:45N 48°24' W 122°30'0 0.0
2017-Sep-20 16:18N 48°24' W 122°30'0 0.0
2017-Sep-20 15:26N 48°24' W 122°30'0 0.0
2017-Sep-20 15:00N 48°24' W 122°30'0 0.0
2017-Sep-20 13:59N 48°24' W 122°30'0 0.0
2017-Sep-20 13:30N 48°24' W 122°30'0 0.1
2017-Sep-20 13:00N 48°24' W 122°30'0 0.1
2017-Sep-20 12:30N 48°24' W 122°30'0 0.0
2017-Sep-20 12:00N 48°24' W 122°30'0 0.0
2017-Sep-20 11:31N 48°24' W 122°30'0 0.0
2017-Sep-20 11:01N 48°24' W 122°30'0 0.0
2017-Sep-20 09:56N 48°24' W 122°30'0 0.0
2017-Sep-20 09:29N 48°24' W 122°30'0 0.0
2017-Sep-20 08:16N 48°24' W 122°30'0 0.0
2017-Sep-20 07:59N 48°24' W 122°30'0 0.0
2017-Sep-20 07:25N 48°24' W 122°30'0 0.0
2017-Sep-20 06:22N 48°24' W 122°30'0 0.0
2017-Sep-20 06:00N 48°24' W 122°30'0 0.0
2017-Sep-20 02:28N 48°24' W 122°30'0 0.0
2017-Sep-19 23:11N 48°24' W 122°30'0 0.0
2017-Sep-19 22:59N 48°24' W 122°30'0 0.0
2017-Sep-19 22:18N 48°24' W 122°30'0 0.0
2017-Sep-19 22:00N 48°24' W 122°30'0 0.0
2017-Sep-19 20:22N 48°24' W 122°30'0 0.0
2017-Sep-19 19:57N 48°24' W 122°30'0 0.1
2017-Sep-19 19:30N 48°24' W 122°30'0 0.1
2017-Sep-19 18:59N 48°24' W 122°30'0 0.1
2017-Sep-19 18:17N 48°24' W 122°30'0 0.1
2017-Sep-19 18:01N 48°24' W 122°30'19 0.9
2017-Sep-18 21:33N 48°05' W 122°26'1 7.5
2017-Sep-18 21:24N 48°04' W 122°25'3 7.7
2017-Sep-18 20:58N 48°02' W 122°21'3 7.0
2017-Sep-18 20:29N 48°00' W 122°17'3 5.7
2017-Sep-18 20:00N 47°59' W 122°13'1 1.9
2017-Sep-18 19:30N 47°59' W 122°15'2 4.9
2017-Sep-18 19:00N 47°58' W 122°18'4 8.9
2017-Sep-18 18:30N 47°54' W 122°21'4 7.7
2017-Sep-18 18:00N 47°54' W 122°27'4 7.9
2017-Sep-18 17:30N 47°56' W 122°32'4 7.3
2017-Sep-18 16:56N 47°58' W 122°37'9 3.1
2017-Sep-18 14:02N 48°06' W 122°44'7 5.9
2017-Sep-18 12:49N 48°01' W 122°37'3 7.8
2017-Sep-18 12:29N 47°59' W 122°35'4 7.6
2017-Sep-18 12:00N 47°57' W 122°31'3 6.2
2017-Sep-18 11:30N 47°54' W 122°27'3 6.1
2017-Sep-18 11:00N 47°53' W 122°23'3 5.4
2017-Sep-18 10:30N 47°56' W 122°21'3 5.3
2017-Sep-18 10:00N 47°58' W 122°18'3 5.5
2017-Sep-18 09:29N 47°59' W 122°15'3 5.2
2017-Sep-18 09:00N 47°58' W 122°18'611.4
2017-Sep-18 08:30N 47°53' W 122°22'611.1
2017-Sep-18 08:00N 47°48' W 122°25'611.3
2017-Sep-18 07:30N 47°42' W 122°26'611.1
2017-Sep-18 07:00N 47°37' W 122°28'611.1
2017-Sep-18 06:30N 47°31' W 122°29'611.6
2017-Sep-18 06:00N 47°26' W 122°32'611.6
2017-Sep-18 05:30N 47°20' W 122°33'611.2
2017-Sep-18 04:59N 47°14' W 122°35'910.1
2017-Sep-18 04:04N 47°10' W 122°47'111.8
2017-Sep-18 03:59N 47°11' W 122°48'2 0.2
2017-Sep-17 19:14N 47°10' W 122°46'4 1.2
2017-Sep-17 15:59N 47°11' W 122°40'1 1.1
2017-Sep-17 15:30N 47°11' W 122°39'1 1.7
2017-Sep-17 15:00N 47°12' W 122°38'1 1.5
2017-Sep-17 14:30N 47°12' W 122°38'1 1.0
2017-Sep-17 13:51N 47°13' W 122°38'0 0.4
2017-Sep-17 13:29N 47°13' W 122°38'0 0.3
2017-Sep-17 12:58N 47°13' W 122°38'0 0.3
2017-Sep-17 12:30N 47°13' W 122°38'0 0.2
2017-Sep-17 11:58N 47°13' W 122°38'0 0.4
2017-Sep-17 10:46N 47°13' W 122°38'0 0.3
2017-Sep-17 10:29N 47°13' W 122°38'0 0.1
2017-Sep-17 09:53N 47°13' W 122°38'0 0.1
2017-Sep-17 09:28N 47°13' W 122°39'0 0.5
2017-Sep-17 08:57N 47°13' W 122°38'1 1.2
2017-Sep-17 08:09N 47°13' W 122°37'1 1.9
2017-Sep-17 07:50N 47°13' W 122°36'1 2.8
2017-Sep-17 07:30N 47°14' W 122°35'1 2.8
2017-Sep-17 07:00N 47°15' W 122°34'2 4.0
2017-Sep-17 06:30N 47°16' W 122°33'1 2.6
2017-Sep-17 06:00N 47°18' W 122°33'1 1.8
2017-Sep-17 05:30N 47°19' W 122°33'1 1.3
2017-Sep-17 05:00N 47°19' W 122°33'1 1.4
2017-Sep-17 04:30N 47°19' W 122°32'1 1.9
2017-Sep-17 04:00N 47°19' W 122°31'1 1.3
2017-Sep-17 03:30N 47°18' W 122°30'1 1.1
2017-Sep-17 03:00N 47°18' W 122°30'1 1.0
2017-Sep-17 02:30N 47°18' W 122°29'0 0.3
2017-Sep-17 02:00N 47°18' W 122°29'0 0.5
2017-Sep-17 01:30N 47°18' W 122°29'0 0.4
2017-Sep-17 01:00N 47°18' W 122°29'0 0.6
2017-Sep-17 00:30N 47°18' W 122°29'0 0.6
2017-Sep-17 00:00N 47°18' W 122°29'1 1.3
2017-Sep-16 23:30N 47°19' W 122°29'1 1.2
2017-Sep-16 23:00N 47°20' W 122°28'1 1.6
2017-Sep-16 22:30N 47°20' W 122°27'1 1.5
2017-Sep-16 22:00N 47°21' W 122°27'1 1.5
2017-Sep-16 21:30N 47°21' W 122°26'1 1.4
2017-Sep-16 21:00N 47°22' W 122°25'1 1.4
2017-Sep-16 20:30N 47°22' W 122°24'1 1.2
2017-Sep-16 20:00N 47°22' W 122°23'1 1.1
2017-Sep-16 19:30N 47°23' W 122°23'1 1.6
2017-Sep-16 19:00N 47°23' W 122°22'1 2.0
2017-Sep-16 18:30N 47°24' W 122°23'1 1.7
2017-Sep-16 18:00N 47°25' W 122°24'1 1.7
2017-Sep-16 17:30N 47°25' W 122°25'1 1.7
2017-Sep-16 17:00N 47°26' W 122°25'1 1.5
2017-Sep-16 16:30N 47°27' W 122°25'1 1.5
2017-Sep-16 16:00N 47°28' W 122°25'1 1.7
2017-Sep-16 15:30N 47°28' W 122°26'1 1.1
2017-Sep-16 15:00N 47°29' W 122°26'0 0.9
2017-Sep-16 14:30N 47°29' W 122°26'0 0.9
2017-Sep-16 14:00N 47°30' W 122°26'0 0.9
2017-Sep-16 13:30N 47°30' W 122°27'1 1.0
2017-Sep-16 13:00N 47°31' W 122°27'0 0.8
2017-Sep-16 12:30N 47°31' W 122°27'0 1.0
2017-Sep-16 12:00N 47°32' W 122°27'0 0.8
2017-Sep-16 11:30N 47°32' W 122°28'0 0.8
2017-Sep-16 11:00N 47°32' W 122°28'0 1.0
2017-Sep-16 10:30N 47°33' W 122°28'1 1.1
2017-Sep-16 10:00N 47°33' W 122°28'1 1.1
2017-Sep-16 09:30N 47°34' W 122°28'1 1.0
2017-Sep-16 09:00N 47°34' W 122°28'1 1.1
2017-Sep-16 08:30N 47°35' W 122°28'1 1.2
2017-Sep-16 08:00N 47°35' W 122°28'1 1.4
2017-Sep-16 07:30N 47°36' W 122°28'1 1.3
2017-Sep-16 07:00N 47°37' W 122°29'1 1.7
2017-Sep-16 06:30N 47°38' W 122°29'1 1.6
2017-Sep-16 06:00N 47°38' W 122°29'1 1.3
2017-Sep-16 05:30N 47°39' W 122°29'1 1.4
2017-Sep-16 05:00N 47°40' W 122°30'1 1.4
2017-Sep-16 04:30N 47°40' W 122°30'1 1.2
2017-Sep-16 04:00N 47°41' W 122°30'1 1.1
2017-Sep-16 03:30N 47°41' W 122°30'0 0.9
2017-Sep-16 03:00N 47°42' W 122°29'0 0.8
2017-Sep-16 02:30N 47°42' W 122°29'0 0.9
2017-Sep-16 02:00N 47°43' W 122°29'0 0.9
2017-Sep-16 01:30N 47°43' W 122°29'0 0.9
2017-Sep-16 01:00N 47°44' W 122°28'0 0.8
2017-Sep-16 00:30N 47°44' W 122°28'0 0.7
2017-Sep-16 00:00N 47°44' W 122°28'0 0.5
2017-Sep-15 23:30N 47°44' W 122°28'0 0.8
2017-Sep-15 23:00N 47°45' W 122°27'1 1.4
2017-Sep-15 22:30N 47°45' W 122°27'1 1.3
2017-Sep-15 22:00N 47°46' W 122°27'1 1.4
2017-Sep-15 21:30N 47°47' W 122°27'1 1.3
2017-Sep-15 21:00N 47°47' W 122°26'1 1.2
2017-Sep-15 20:30N 47°48' W 122°25'1 1.1
2017-Sep-15 20:00N 47°48' W 122°25'1 1.4
2017-Sep-15 19:31N 47°49' W 122°25'1 1.4
2017-Sep-15 19:00N 47°49' W 122°24'1 1.4
2017-Sep-15 18:30N 47°50' W 122°23'1 1.4
2017-Sep-15 18:00N 47°51' W 122°23'1 1.4
2017-Sep-15 17:30N 47°51' W 122°22'1 1.4
2017-Sep-15 17:00N 47°52' W 122°22'1 1.4
2017-Sep-15 16:30N 47°52' W 122°21'1 1.3
2017-Sep-15 16:00N 47°53' W 122°21'1 1.5
2017-Sep-15 15:30N 47°54' W 122°21'1 1.7
2017-Sep-15 15:01N 47°54' W 122°20'1 1.7
2017-Sep-15 14:30N 47°55' W 122°20'1 1.8
2017-Sep-15 14:01N 47°56' W 122°20'1 1.9
2017-Sep-15 13:30N 47°57' W 122°19'1 1.7
2017-Sep-15 13:00N 47°58' W 122°18'1 1.7
2017-Sep-15 12:30N 47°58' W 122°17'1 1.6
2017-Sep-15 12:01N 47°58' W 122°16'1 1.6
2017-Sep-15 11:31N 47°58' W 122°15'0 0.6
2017-Sep-15 11:00N 47°59' W 122°15'0 0.1
2017-Sep-15 10:30N 47°58' W 122°15'0 0.3
2017-Sep-15 09:59N 47°58' W 122°14'0 0.6
2017-Sep-15 09:30N 47°59' W 122°15'1 1.7
2017-Sep-15 08:59N 47°59' W 122°16'1 1.9
2017-Sep-15 08:28N 47°60' W 122°17'1 1.9
2017-Sep-15 07:49N 48°01' W 122°18'1 1.9
2017-Sep-15 07:28N 48°01' W 122°18'1 2.0
2017-Sep-15 06:54N 48°02' W 122°20'1 1.9
2017-Sep-15 06:25N 48°02' W 122°21'1 1.6
2017-Sep-15 05:55N 48°03' W 122°22'1 1.6
2017-Sep-15 05:30N 48°03' W 122°23'1 1.7
2017-Sep-15 05:00N 48°04' W 122°24'1 1.7
2017-Sep-15 04:30N 48°04' W 122°25'1 1.7
2017-Sep-15 04:00N 48°05' W 122°26'12 1.7
2017-Sep-14 20:51N 48°16' W 122°32'0 1.1
2017-Sep-14 20:26N 48°16' W 122°32'1 1.0
2017-Sep-14 19:48N 48°17' W 122°31'0 0.9
2017-Sep-14 19:30N 48°17' W 122°31'0 0.6
2017-Sep-14 18:49N 48°17' W 122°30'0 0.3
2017-Sep-14 18:28N 48°17' W 122°30'0 0.4
2017-Sep-14 17:55N 48°17' W 122°30'0 0.6
2017-Sep-14 17:10N 48°18' W 122°30'0 0.6
2017-Sep-14 16:54N 48°18' W 122°30'0 0.7
2017-Sep-14 16:25N 48°18' W 122°30'0 0.9
2017-Sep-14 16:00N 48°19' W 122°30'1 1.6
2017-Sep-14 15:10N 48°20' W 122°31'0 2.3
2017-Sep-14 14:59N 48°20' W 122°32'6 2.6
2017-Sep-14 12:51N 48°25' W 122°36'1 2.5
2017-Sep-14 12:27N 48°25' W 122°37'1 1.8
2017-Sep-14 11:59N 48°24' W 122°38'1 1.3
2017-Sep-14 11:29N 48°24' W 122°39'0 0.3
2017-Sep-14 11:00N 48°24' W 122°40'0 0.1
2017-Sep-14 10:30N 48°25' W 122°40'0 0.4
2017-Sep-14 09:55N 48°25' W 122°40'0 0.5
2017-Sep-14 09:25N 48°25' W 122°40'0 0.6
2017-Sep-14 09:00N 48°25' W 122°40'1 1.3
2017-Sep-14 08:26N 48°26' W 122°41'1 1.5
2017-Sep-14 08:00N 48°26' W 122°42'1 2.1
2017-Sep-14 07:30N 48°27' W 122°43'1 2.6
2017-Sep-14 07:00N 48°28' W 122°43'1 2.2
2017-Sep-14 06:30N 48°29' W 122°44'1 2.1
2017-Sep-14 06:01N 48°30' W 122°45'1 1.7
2017-Sep-14 05:30N 48°31' W 122°45'1 1.3
2017-Sep-14 05:01N 48°31' W 122°46'1 1.0
2017-Sep-14 04:30N 48°31' W 122°47'1 1.5
2017-Sep-14 04:00N 48°32' W 122°48'1 1.1
2017-Sep-14 03:31N 48°32' W 122°48'0 0.9
2017-Sep-14 03:00N 48°32' W 122°49'0 0.7
2017-Sep-14 02:31N 48°32' W 122°50'0 0.9
2017-Sep-14 02:00N 48°32' W 122°50'0 0.8
2017-Sep-14 01:30N 48°31' W 122°51'0 0.6
2017-Sep-14 01:00N 48°31' W 122°51'0 0.2
2017-Sep-14 00:30N 48°31' W 122°51'0 0.0
2017-Sep-14 00:01N 48°31' W 122°51'0 0.0
2017-Sep-13 23:30N 48°31' W 122°51'0 0.0
2017-Sep-13 23:00N 48°31' W 122°51'0 0.0
2017-Sep-13 22:30N 48°31' W 122°51'0 0.0
2017-Sep-13 22:00N 48°31' W 122°51'0 0.0
2017-Sep-13 21:30N 48°31' W 122°51'0 0.0
2017-Sep-13 21:01N 48°31' W 122°51'0 0.0
2017-Sep-13 20:30N 48°31' W 122°51'0 0.0
2017-Sep-13 20:00N 48°31' W 122°51'0 0.0
2017-Sep-13 19:30N 48°31' W 122°51'0 0.1
2017-Sep-13 19:00N 48°31' W 122°51'0 0.0
2017-Sep-13 18:30N 48°31' W 122°51'0 0.1
2017-Sep-13 18:00N 48°31' W 122°51'0 0.0
2017-Sep-13 17:31N 48°31' W 122°51'0 0.0
2017-Sep-13 17:00N 48°31' W 122°51'0 0.0
2017-Sep-13 16:30N 48°31' W 122°51'0 0.0
2017-Sep-13 16:00N 48°31' W 122°51'0 0.0
2017-Sep-13 15:30N 48°31' W 122°51'0 0.1
2017-Sep-13 14:59N 48°31' W 122°51'0 0.0
2017-Sep-13 14:30N 48°31' W 122°51'0 0.0
2017-Sep-13 14:00N 48°31' W 122°51'0 0.0
2017-Sep-13 13:30N 48°31' W 122°51'0 0.0
2017-Sep-13 13:00N 48°31' W 122°51'0 0.0
2017-Sep-13 12:30N 48°31' W 122°51'0 0.1
2017-Sep-13 11:57N 48°31' W 122°51'0 0.1
2017-Sep-13 11:17N 48°31' W 122°51'0 0.1
2017-Sep-13 11:00N 48°31' W 122°51'0 0.0
2017-Sep-13 10:27N 48°31' W 122°51'0 0.0
2017-Sep-13 10:00N 48°31' W 122°51'0 0.0
2017-Sep-13 06:48N 48°31' W 122°51'0 0.0
2017-Sep-13 06:26N 48°31' W 122°51'0 0.6
2017-Sep-13 05:54N 48°32' W 122°51'1 1.5
2017-Sep-13 05:29N 48°32' W 122°50'1 1.2
2017-Sep-13 04:53N 48°33' W 122°51'0 1.3
2017-Sep-13 04:29N 48°33' W 122°51'1 1.3
2017-Sep-13 04:00N 48°34' W 122°51'1 1.2
2017-Sep-13 03:27N 48°34' W 122°52'1 1.2
2017-Sep-13 03:00N 48°35' W 122°52'1 1.3
2017-Sep-13 02:25N 48°35' W 122°53'2 1.1
2017-Sep-13 00:39N 48°35' W 122°56'0 1.4
2017-Sep-13 00:30N 48°35' W 122°57'1 1.6
2017-Sep-13 00:00N 48°36' W 122°58'1 1.1
2017-Sep-12 23:30N 48°36' W 122°58'1 1.7
2017-Sep-12 23:00N 48°35' W 122°60'1 1.3
2017-Sep-12 22:30N 48°36' W 123°01'1 1.9
2017-Sep-12 21:52N 48°36' W 123°02'1 1.8
2017-Sep-12 21:30N 48°37' W 123°02'1 1.8
2017-Sep-12 21:00N 48°38' W 123°02'1 2.0
2017-Sep-12 20:30N 48°39' W 123°01'2 2.9
2017-Sep-12 19:54N 48°40' W 122°60'1 2.4
2017-Sep-12 19:30N 48°41' W 122°59'1 2.0
2017-Sep-12 19:00N 48°42' W 122°59'1 1.7
2017-Sep-12 18:30N 48°43' W 122°59'1 1.6
2017-Sep-12 18:00N 48°44' W 122°60'1 1.2
2017-Sep-12 17:29N 48°44' W 123°00'1 2.3
2017-Sep-12 16:56N 48°45' W 123°02'1 3.2
2017-Sep-12 16:30N 48°44' W 123°04'1 2.8
2017-Sep-12 16:00N 48°44' W 123°06'1 2.5
2017-Sep-12 15:30N 48°44' W 123°08'1 2.2
2017-Sep-12 15:00N 48°45' W 123°10'1 2.2
2017-Sep-12 14:30N 48°46' W 123°11'1 2.2
2017-Sep-12 14:00N 48°46' W 123°12'1 1.9
2017-Sep-12 13:30N 48°47' W 123°13'1 1.6
2017-Sep-12 13:00N 48°47' W 123°14'1 1.4
2017-Sep-12 12:28N 48°48' W 123°15'1 1.4
2017-Sep-12 12:00N 48°49' W 123°15'1 1.5
2017-Sep-12 11:30N 48°49' W 123°16'1 1.9
2017-Sep-12 11:00N 48°49' W 123°18'1 2.2
2017-Sep-12 10:30N 48°50' W 123°19'1 2.7
2017-Sep-12 10:00N 48°50' W 123°21'1 2.3
2017-Sep-12 09:30N 48°51' W 123°22'1 2.3
2017-Sep-12 09:00N 48°51' W 123°24'1 1.8
2017-Sep-12 08:30N 48°52' W 123°25'0 0.0
2017-Sep-12 08:00N 48°52' W 123°25'0 0.1
2017-Sep-12 07:30N 48°52' W 123°25'0 0.1
2017-Sep-12 07:00N 48°52' W 123°25'0 0.2
2017-Sep-12 06:30N 48°52' W 123°25'0 0.2
2017-Sep-12 06:00N 48°52' W 123°25'0 0.7
2017-Sep-12 05:30N 48°52' W 123°26'1 1.4
2017-Sep-12 05:00N 48°53' W 123°26'1 1.3
2017-Sep-12 04:30N 48°53' W 123°27'0 1.0
2017-Sep-12 04:00N 48°54' W 123°27'0 0.7
2017-Sep-12 03:30N 48°54' W 123°28'0 0.5
2017-Sep-12 03:00N 48°54' W 123°28'0 0.5
2017-Sep-12 02:30N 48°54' W 123°28'0 0.5
2017-Sep-12 02:00N 48°54' W 123°29'0 0.4
2017-Sep-12 01:30N 48°55' W 123°29'  
Track history (hours):
 
Tides and Currents Weather Stations Pressure Air Temp Water Temp Dewpoint Dewpoint Depression Visibility Wind Speed Wind Dir Waves Ship Positions

Swinomish

Owner: DUNLAP TOWING CO, LA CONNER, WA. More information available from US FCC via Universal Licensing System and Coast Guard Vessel Documentation Center.

Last reported at 2017-Sep-22 01:08 UTC. Time now 2017-Sep-23 18:32 UTC.
Position N 48°24' W 122°30'.

Length 15 m; draft 3.5 m.

Type: Tug. MMSI: 366972050.

Date/timePositionNaut miles runAvg speedWind from/ knotsBaromVisibWave heightAir tempDewpointWater temp
2017-Sep-22 01:08N 48°24' W 122°30'0 0.0
2017-Sep-22 01:00N 48°24' W 122°30'0 0.0
2017-Sep-22 00:30N 48°24' W 122°30'0 0.0
2017-Sep-22 00:00N 48°24' W 122°30'0 0.0
2017-Sep-21 23:31N 48°24' W 122°30'0 0.0
2017-Sep-21 16:17N 48°24' W 122°30'0 0.0
2017-Sep-21 15:06N 48°24' W 122°30'0 0.0
2017-Sep-21 15:00N 48°24' W 122°30'0 0.0
2017-Sep-21 14:31N 48°24' W 122°30'0 0.0
2017-Sep-21 14:00N 48°24' W 122°30'0 0.0
2017-Sep-21 13:30N 48°24' W 122°30'0 0.0
2017-Sep-21 13:01N 48°24' W 122°30'0 0.0
2017-Sep-21 12:30N 48°24' W 122°30'0 0.0
2017-Sep-21 12:00N 48°24' W 122°30'0 0.0
2017-Sep-21 11:30N 48°24' W 122°30'0 0.0
2017-Sep-21 11:00N 48°24' W 122°30'0 0.0
2017-Sep-21 10:30N 48°24' W 122°30'0 0.0
2017-Sep-21 10:00N 48°24' W 122°30'0 0.1
2017-Sep-21 09:31N 48°24' W 122°30'0 0.1
2017-Sep-21 09:01N 48°24' W 122°30'0 0.0
2017-Sep-21 08:30N 48°24' W 122°30'0 0.0
2017-Sep-21 08:00N 48°24' W 122°30'0 0.0
2017-Sep-21 07:30N 48°24' W 122°30'0 0.0
2017-Sep-21 07:00N 48°24' W 122°30'0 0.0
2017-Sep-21 06:30N 48°24' W 122°30'0 0.0
2017-Sep-21 06:00N 48°24' W 122°30'0 0.0
2017-Sep-21 05:30N 48°24' W 122°30'0 0.0
2017-Sep-21 05:00N 48°24' W 122°30'0 0.0
2017-Sep-21 04:30N 48°24' W 122°30'0 0.0
2017-Sep-21 03:59N 48°24' W 122°30'0 0.0
2017-Sep-21 03:30N 48°24' W 122°30'0 0.0
2017-Sep-21 02:45N 48°24' W 122°30'0 0.0
2017-Sep-21 02:28N 48°24' W 122°30'0 0.0
2017-Sep-21 00:01N 48°24' W 122°30'0 0.0
2017-Sep-20 23:55N 48°24' W 122°30'0 0.0
2017-Sep-20 16:45N 48°24' W 122°30'0 0.0
2017-Sep-20 16:18N 48°24' W 122°30'0 0.0
2017-Sep-20 15:26N 48°24' W 122°30'0 0.0
2017-Sep-20 15:00N 48°24' W 122°30'0 0.0
2017-Sep-20 13:59N 48°24' W 122°30'0 0.0
2017-Sep-20 13:30N 48°24' W 122°30'0 0.1
2017-Sep-20 13:00N 48°24' W 122°30'0 0.1
2017-Sep-20 12:30N 48°24' W 122°30'0 0.0
2017-Sep-20 12:00N 48°24' W 122°30'0 0.0
2017-Sep-20 11:31N 48°24' W 122°30'0 0.0
2017-Sep-20 11:01N 48°24' W 122°30'0 0.0
2017-Sep-20 09:56N 48°24' W 122°30'0 0.0
2017-Sep-20 09:29N 48°24' W 122°30'0 0.0
2017-Sep-20 08:16N 48°24' W 122°30'0 0.0
2017-Sep-20 07:59N 48°24' W 122°30'0 0.0
2017-Sep-20 07:25N 48°24' W 122°30'0 0.0
2017-Sep-20 06:22N 48°24' W 122°30'0 0.0
2017-Sep-20 06:00N 48°24' W 122°30'0 0.0
2017-Sep-20 02:28N 48°24' W 122°30'0 0.0
2017-Sep-19 23:11N 48°24' W 122°30'0 0.0
2017-Sep-19 22:59N 48°24' W 122°30'0 0.0
2017-Sep-19 22:18N 48°24' W 122°30'0 0.0
2017-Sep-19 22:00N 48°24' W 122°30'0 0.0
2017-Sep-19 20:22N 48°24' W 122°30'0 0.0
2017-Sep-19 19:57N 48°24' W 122°30'0 0.1
2017-Sep-19 19:30N 48°24' W 122°30'0 0.1
2017-Sep-19 18:59N 48°24' W 122°30'0 0.1
2017-Sep-19 18:17N 48°24' W 122°30'0 0.1
2017-Sep-19 18:01N 48°24' W 122°30'19 0.9
2017-Sep-18 21:33N 48°05' W 122°26'1 7.5
2017-Sep-18 21:24N 48°04' W 122°25'3 7.7
2017-Sep-18 20:58N 48°02' W 122°21'3 7.0
2017-Sep-18 20:29N 48°00' W 122°17'3 5.7
2017-Sep-18 20:00N 47°59' W 122°13'1 1.9
2017-Sep-18 19:30N 47°59' W 122°15'2 4.9
2017-Sep-18 19:00N 47°58' W 122°18'4 8.9
2017-Sep-18 18:30N 47°54' W 122°21'4 7.7
2017-Sep-18 18:00N 47°54' W 122°27'4 7.9
2017-Sep-18 17:30N 47°56' W 122°32'4 7.3
2017-Sep-18 16:56N 47°58' W 122°37'9 3.1
2017-Sep-18 14:02N 48°06' W 122°44'7 5.9
2017-Sep-18 12:49N 48°01' W 122°37'3 7.8
2017-Sep-18 12:29N 47°59' W 122°35'4 7.6
2017-Sep-18 12:00N 47°57' W 122°31'3 6.2
2017-Sep-18 11:30N 47°54' W 122°27'3 6.1
2017-Sep-18 11:00N 47°53' W 122°23'3 5.4
2017-Sep-18 10:30N 47°56' W 122°21'3 5.3
2017-Sep-18 10:00N 47°58' W 122°18'3 5.5
2017-Sep-18 09:29N 47°59' W 122°15'3 5.2
2017-Sep-18 09:00N 47°58' W 122°18'611.4
2017-Sep-18 08:30N 47°53' W 122°22'611.1
2017-Sep-18 08:00N 47°48' W 122°25'611.3
2017-Sep-18 07:30N 47°42' W 122°26'611.1
2017-Sep-18 07:00N 47°37' W 122°28'611.1
2017-Sep-18 06:30N 47°31' W 122°29'611.6
2017-Sep-18 06:00N 47°26' W 122°32'611.6
2017-Sep-18 05:30N 47°20' W 122°33'611.2
2017-Sep-18 04:59N 47°14' W 122°35'910.1
2017-Sep-18 04:04N 47°10' W 122°47'111.8
2017-Sep-18 03:59N 47°11' W 122°48'2 0.2
2017-Sep-17 19:14N 47°10' W 122°46'4 1.2
2017-Sep-17 15:59N 47°11' W 122°40'1 1.1
2017-Sep-17 15:30N 47°11' W 122°39'1 1.7
2017-Sep-17 15:00N 47°12' W 122°38'1 1.5
2017-Sep-17 14:30N 47°12' W 122°38'1 1.0
2017-Sep-17 13:51N 47°13' W 122°38'0 0.4
2017-Sep-17 13:29N 47°13' W 122°38'0 0.3
2017-Sep-17 12:58N 47°13' W 122°38'0 0.3
2017-Sep-17 12:30N 47°13' W 122°38'0 0.2
2017-Sep-17 11:58N 47°13' W 122°38'0 0.4
2017-Sep-17 10:46N 47°13' W 122°38'0 0.3
2017-Sep-17 10:29N 47°13' W 122°38'0 0.1
2017-Sep-17 09:53N 47°13' W 122°38'0 0.1
2017-Sep-17 09:28N 47°13' W 122°39'0 0.5
2017-Sep-17 08:57N 47°13' W 122°38'1 1.2
2017-Sep-17 08:09N 47°13' W 122°37'1 1.9
2017-Sep-17 07:50N 47°13' W 122°36'1 2.8
2017-Sep-17 07:30N 47°14' W 122°35'1 2.8
2017-Sep-17 07:00N 47°15' W 122°34'2 4.0
2017-Sep-17 06:30N 47°16' W 122°33'1 2.6
2017-Sep-17 06:00N 47°18' W 122°33'1 1.8
2017-Sep-17 05:30N 47°19' W 122°33'1 1.3
2017-Sep-17 05:00N 47°19' W 122°33'1 1.4
2017-Sep-17 04:30N 47°19' W 122°32'1 1.9
2017-Sep-17 04:00N 47°19' W 122°31'1 1.3
2017-Sep-17 03:30N 47°18' W 122°30'1 1.1
2017-Sep-17 03:00N 47°18' W 122°30'1 1.0
2017-Sep-17 02:30N 47°18' W 122°29'0 0.3
2017-Sep-17 02:00N 47°18' W 122°29'0 0.5
2017-Sep-17 01:30N 47°18' W 122°29'0 0.4
2017-Sep-17 01:00N 47°18' W 122°29'0 0.6
2017-Sep-17 00:30N 47°18' W 122°29'0 0.6
2017-Sep-17 00:00N 47°18' W 122°29'1 1.3
2017-Sep-16 23:30N 47°19' W 122°29'1 1.2
2017-Sep-16 23:00N 47°20' W 122°28'1 1.6
2017-Sep-16 22:30N 47°20' W 122°27'1 1.5
2017-Sep-16 22:00N 47°21' W 122°27'1 1.5
2017-Sep-16 21:30N 47°21' W 122°26'1 1.4
2017-Sep-16 21:00N 47°22' W 122°25'1 1.4
2017-Sep-16 20:30N 47°22' W 122°24'1 1.2
2017-Sep-16 20:00N 47°22' W 122°23'1 1.1
2017-Sep-16 19:30N 47°23' W 122°23'1 1.6
2017-Sep-16 19:00N 47°23' W 122°22'1 2.0
2017-Sep-16 18:30N 47°24' W 122°23'1 1.7
2017-Sep-16 18:00N 47°25' W 122°24'1 1.7
2017-Sep-16 17:30N 47°25' W 122°25'1 1.7
2017-Sep-16 17:00N 47°26' W 122°25'1 1.5
2017-Sep-16 16:30N 47°27' W 122°25'1 1.5
2017-Sep-16 16:00N 47°28' W 122°25'1 1.7
2017-Sep-16 15:30N 47°28' W 122°26'1 1.1
2017-Sep-16 15:00N 47°29' W 122°26'0 0.9
2017-Sep-16 14:30N 47°29' W 122°26'0 0.9
2017-Sep-16 14:00N 47°30' W 122°26'0 0.9
2017-Sep-16 13:30N 47°30' W 122°27'1 1.0
2017-Sep-16 13:00N 47°31' W 122°27'0 0.8
2017-Sep-16 12:30N 47°31' W 122°27'0 1.0
2017-Sep-16 12:00N 47°32' W 122°27'0 0.8
2017-Sep-16 11:30N 47°32' W 122°28'0 0.8
2017-Sep-16 11:00N 47°32' W 122°28'0 1.0
2017-Sep-16 10:30N 47°33' W 122°28'1 1.1
2017-Sep-16 10:00N 47°33' W 122°28'1 1.1
2017-Sep-16 09:30N 47°34' W 122°28'1 1.0
2017-Sep-16 09:00N 47°34' W 122°28'1 1.1
2017-Sep-16 08:30N 47°35' W 122°28'1 1.2
2017-Sep-16 08:00N 47°35' W 122°28'1 1.4
2017-Sep-16 07:30N 47°36' W 122°28'1 1.3
2017-Sep-16 07:00N 47°37' W 122°29'1 1.7
2017-Sep-16 06:30N 47°38' W 122°29'1 1.6
2017-Sep-16 06:00N 47°38' W 122°29'1 1.3
2017-Sep-16 05:30N 47°39' W 122°29'1 1.4
2017-Sep-16 05:00N 47°40' W 122°30'1 1.4
2017-Sep-16 04:30N 47°40' W 122°30'1 1.2
2017-Sep-16 04:00N 47°41' W 122°30'1 1.1
2017-Sep-16 03:30N 47°41' W 122°30'0 0.9
2017-Sep-16 03:00N 47°42' W 122°29'0 0.8
2017-Sep-16 02:30N 47°42' W 122°29'0 0.9
2017-Sep-16 02:00N 47°43' W 122°29'0 0.9
2017-Sep-16 01:30N 47°43' W 122°29'0 0.9
2017-Sep-16 01:00N 47°44' W 122°28'0 0.8
2017-Sep-16 00:30N 47°44' W 122°28'0 0.7
2017-Sep-16 00:00N 47°44' W 122°28'0 0.5
2017-Sep-15 23:30N 47°44' W 122°28'0 0.8
2017-Sep-15 23:00N 47°45' W 122°27'1 1.4
2017-Sep-15 22:30N 47°45' W 122°27'1 1.3
2017-Sep-15 22:00N 47°46' W 122°27'1 1.4
2017-Sep-15 21:30N 47°47' W 122°27'1 1.3
2017-Sep-15 21:00N 47°47' W 122°26'1 1.2
2017-Sep-15 20:30N 47°48' W 122°25'1 1.1
2017-Sep-15 20:00N 47°48' W 122°25'1 1.4
2017-Sep-15 19:31N 47°49' W 122°25'1 1.4
2017-Sep-15 19:00N 47°49' W 122°24'1 1.4
2017-Sep-15 18:30N 47°50' W 122°23'1 1.4
2017-Sep-15 18:00N 47°51' W 122°23'1 1.4
2017-Sep-15 17:30N 47°51' W 122°22'1 1.4
2017-Sep-15 17:00N 47°52' W 122°22'1 1.4
2017-Sep-15 16:30N 47°52' W 122°21'1 1.3
2017-Sep-15 16:00N 47°53' W 122°21'1 1.5
2017-Sep-15 15:30N 47°54' W 122°21'1 1.7
2017-Sep-15 15:01N 47°54' W 122°20'1 1.7
2017-Sep-15 14:30N 47°55' W 122°20'1 1.8
2017-Sep-15 14:01N 47°56' W 122°20'1 1.9
2017-Sep-15 13:30N 47°57' W 122°19'1 1.7
2017-Sep-15 13:00N 47°58' W 122°18'1 1.7
2017-Sep-15 12:30N 47°58' W 122°17'1 1.6
2017-Sep-15 12:01N 47°58' W 122°16'1 1.6
2017-Sep-15 11:31N 47°58' W 122°15'0 0.6
2017-Sep-15 11:00N 47°59' W 122°15'0 0.1
2017-Sep-15 10:30N 47°58' W 122°15'0 0.3
2017-Sep-15 09:59N 47°58' W 122°14'0 0.6
2017-Sep-15 09:30N 47°59' W 122°15'1 1.7
2017-Sep-15 08:59N 47°59' W 122°16'1 1.9
2017-Sep-15 08:28N 47°60' W 122°17'1 1.9
2017-Sep-15 07:49N 48°01' W 122°18'1 1.9
2017-Sep-15 07:28N 48°01' W 122°18'1 2.0
2017-Sep-15 06:54N 48°02' W 122°20'1 1.9
2017-Sep-15 06:25N 48°02' W 122°21'1 1.6
2017-Sep-15 05:55N 48°03' W 122°22'1 1.6
2017-Sep-15 05:30N 48°03' W 122°23'1 1.7
2017-Sep-15 05:00N 48°04' W 122°24'1 1.7
2017-Sep-15 04:30N 48°04' W 122°25'1 1.7
2017-Sep-15 04:00N 48°05' W 122°26'12 1.7
2017-Sep-14 20:51N 48°16' W 122°32'0 1.1
2017-Sep-14 20:26N 48°16' W 122°32'1 1.0
2017-Sep-14 19:48N 48°17' W 122°31'0 0.9
2017-Sep-14 19:30N 48°17' W 122°31'0 0.6
2017-Sep-14 18:49N 48°17' W 122°30'0 0.3
2017-Sep-14 18:28N 48°17' W 122°30'0 0.4
2017-Sep-14 17:55N 48°17' W 122°30'0 0.6
2017-Sep-14 17:10N 48°18' W 122°30'0 0.6
2017-Sep-14 16:54N 48°18' W 122°30'0 0.7
2017-Sep-14 16:25N 48°18' W 122°30'0 0.9
2017-Sep-14 16:00N 48°19' W 122°30'1 1.6
2017-Sep-14 15:10N 48°20' W 122°31'0 2.3
2017-Sep-14 14:59N 48°20' W 122°32'6 2.6
2017-Sep-14 12:51N 48°25' W 122°36'1 2.5
2017-Sep-14 12:27N 48°25' W 122°37'1 1.8
2017-Sep-14 11:59N 48°24' W 122°38'1 1.3
2017-Sep-14 11:29N 48°24' W 122°39'0 0.3
2017-Sep-14 11:00N 48°24' W 122°40'0 0.1
2017-Sep-14 10:30N 48°25' W 122°40'0 0.4
2017-Sep-14 09:55N 48°25' W 122°40'0 0.5
2017-Sep-14 09:25N 48°25' W 122°40'0 0.6
2017-Sep-14 09:00N 48°25' W 122°40'1 1.3
2017-Sep-14 08:26N 48°26' W 122°41'1 1.5
2017-Sep-14 08:00N 48°26' W 122°42'1 2.1
2017-Sep-14 07:30N 48°27' W 122°43'1 2.6
2017-Sep-14 07:00N 48°28' W 122°43'1 2.2
2017-Sep-14 06:30N 48°29' W 122°44'1 2.1
2017-Sep-14 06:01N 48°30' W 122°45'1 1.7
2017-Sep-14 05:30N 48°31' W 122°45'1 1.3
2017-Sep-14 05:01N 48°31' W 122°46'1 1.0
2017-Sep-14 04:30N 48°31' W 122°47'1 1.5
2017-Sep-14 04:00N 48°32' W 122°48'1 1.1
2017-Sep-14 03:31N 48°32' W 122°48'0 0.9
2017-Sep-14 03:00N 48°32' W 122°49'0 0.7
2017-Sep-14 02:31N 48°32' W 122°50'0 0.9
2017-Sep-14 02:00N 48°32' W 122°50'0 0.8
2017-Sep-14 01:30N 48°31' W 122°51'0 0.6
2017-Sep-14 01:00N 48°31' W 122°51'0 0.2
2017-Sep-14 00:30N 48°31' W 122°51'0 0.0
2017-Sep-14 00:01N 48°31' W 122°51'0 0.0
2017-Sep-13 23:30N 48°31' W 122°51'0 0.0
2017-Sep-13 23:00N 48°31' W 122°51'0 0.0
2017-Sep-13 22:30N 48°31' W 122°51'0 0.0
2017-Sep-13 22:00N 48°31' W 122°51'0 0.0
2017-Sep-13 21:30N 48°31' W 122°51'0 0.0
2017-Sep-13 21:01N 48°31' W 122°51'0 0.0
2017-Sep-13 20:30N 48°31' W 122°51'0 0.0
2017-Sep-13 20:00N 48°31' W 122°51'0 0.0
2017-Sep-13 19:30N 48°31' W 122°51'0 0.1
2017-Sep-13 19:00N 48°31' W 122°51'0 0.0
2017-Sep-13 18:30N 48°31' W 122°51'0 0.1
2017-Sep-13 18:00N 48°31' W 122°51'0 0.0
2017-Sep-13 17:31N 48°31' W 122°51'0 0.0
2017-Sep-13 17:00N 48°31' W 122°51'0 0.0
2017-Sep-13 16:30N 48°31' W 122°51'0 0.0
2017-Sep-13 16:00N 48°31' W 122°51'0 0.0
2017-Sep-13 15:30N 48°31' W 122°51'0 0.1
2017-Sep-13 14:59N 48°31' W 122°51'0 0.0
2017-Sep-13 14:30N 48°31' W 122°51'0 0.0
2017-Sep-13 14:00N 48°31' W 122°51'0 0.0
2017-Sep-13 13:30N 48°31' W 122°51'0 0.0
2017-Sep-13 13:00N 48°31' W 122°51'0 0.0
2017-Sep-13 12:30N 48°31' W 122°51'0 0.1
2017-Sep-13 11:57N 48°31' W 122°51'0 0.1
2017-Sep-13 11:17N 48°31' W 122°51'0 0.1
2017-Sep-13 11:00N 48°31' W 122°51'0 0.0
2017-Sep-13 10:27N 48°31' W 122°51'0 0.0
2017-Sep-13 10:00N 48°31' W 122°51'0 0.0
2017-Sep-13 06:48N 48°31' W 122°51'0 0.0
2017-Sep-13 06:26N 48°31' W 122°51'0 0.6
2017-Sep-13 05:54N 48°32' W 122°51'1 1.5
2017-Sep-13 05:29N 48°32' W 122°50'1 1.2
2017-Sep-13 04:53N 48°33' W 122°51'0 1.3
2017-Sep-13 04:29N 48°33' W 122°51'1 1.3
2017-Sep-13 04:00N 48°34' W 122°51'1 1.2
2017-Sep-13 03:27N 48°34' W 122°52'1 1.2
2017-Sep-13 03:00N 48°35' W 122°52'1 1.3
2017-Sep-13 02:25N 48°35' W 122°53'2 1.1
2017-Sep-13 00:39N 48°35' W 122°56'0 1.4
2017-Sep-13 00:30N 48°35' W 122°57'1 1.6
2017-Sep-13 00:00N 48°36' W 122°58'1 1.1
2017-Sep-12 23:30N 48°36' W 122°58'1 1.7
2017-Sep-12 23:00N 48°35' W 122°60'1 1.3
2017-Sep-12 22:30N 48°36' W 123°01'1 1.9
2017-Sep-12 21:52N 48°36' W 123°02'1 1.8
2017-Sep-12 21:30N 48°37' W 123°02'1 1.8
2017-Sep-12 21:00N 48°38' W 123°02'1 2.0
2017-Sep-12 20:30N 48°39' W 123°01'2 2.9
2017-Sep-12 19:54N 48°40' W 122°60'1 2.4
2017-Sep-12 19:30N 48°41' W 122°59'1 2.0
2017-Sep-12 19:00N 48°42' W 122°59'1 1.7
2017-Sep-12 18:30N 48°43' W 122°59'1 1.6
2017-Sep-12 18:00N 48°44' W 122°60'1 1.2
2017-Sep-12 17:29N 48°44' W 123°00'1 2.3
2017-Sep-12 16:56N 48°45' W 123°02'1 3.2
2017-Sep-12 16:30N 48°44' W 123°04'1 2.8
2017-Sep-12 16:00N 48°44' W 123°06'1 2.5
2017-Sep-12 15:30N 48°44' W 123°08'1 2.2
2017-Sep-12 15:00N 48°45' W 123°10'1 2.2
2017-Sep-12 14:30N 48°46' W 123°11'1 2.2
2017-Sep-12 14:00N 48°46' W 123°12'1 1.9
2017-Sep-12 13:30N 48°47' W 123°13'1 1.6
2017-Sep-12 13:00N 48°47' W 123°14'1 1.4
2017-Sep-12 12:28N 48°48' W 123°15'1 1.4
2017-Sep-12 12:00N 48°49' W 123°15'1 1.5
2017-Sep-12 11:30N 48°49' W 123°16'1 1.9
2017-Sep-12 11:00N 48°49' W 123°18'1 2.2
2017-Sep-12 10:30N 48°50' W 123°19'1 2.7
2017-Sep-12 10:00N 48°50' W 123°21'1 2.3
2017-Sep-12 09:30N 48°51' W 123°22'1 2.3
2017-Sep-12 09:00N 48°51' W 123°24'1 1.8
2017-Sep-12 08:30N 48°52' W 123°25'0 0.0
2017-Sep-12 08:00N 48°52' W 123°25'0 0.1
2017-Sep-12 07:30N 48°52' W 123°25'0 0.1
2017-Sep-12 07:00N 48°52' W 123°25'0 0.2
2017-Sep-12 06:30N 48°52' W 123°25'0 0.2
2017-Sep-12 06:00N 48°52' W 123°25'0 0.7
2017-Sep-12 05:30N 48°52' W 123°26'1 1.4
2017-Sep-12 05:00N 48°53' W 123°26'1 1.3
2017-Sep-12 04:30N 48°53' W 123°27'0 1.0
2017-Sep-12 04:00N 48°54' W 123°27'0 0.7
2017-Sep-12 03:30N 48°54' W 123°28'0 0.5
2017-Sep-12 03:00N 48°54' W 123°28'0 0.5
2017-Sep-12 02:30N 48°54' W 123°28'0 0.5
2017-Sep-12 02:00N 48°54' W 123°29'0 0.4
2017-Sep-12 01:30N 48°55' W 123°29'  

Dump ship's entire track history